Sligo Airport - TAF
(Terminal Area Forecast)

Issued at 04:51 UTC on Sun. 25-Jul-21

--- METARS(SA) ---

METAR EISG(SLIGO) 250430Z AUTO 19001KT 9000 NSC 14/13 Q1010 =

--- TAFS() ---

TAF EISG(SLIGO) 250200Z 2503/2512 VRB03KT 9999 FEW045 =

--- SIGMETS(WS) ---

IE - No VALID SIGMETS/Warnings FOR THIS AREA

--- SIGMETS Volcanic(WV) ---

IE - No VALID SIGMETS/Warnings FOR THIS AREA

--- SIGMETS(WS) ---

UK - No VALID SIGMETS/Warnings FOR THIS AREA

Sligo Airport - METARs

Latest METARs for Sligo and Donegal Airports - updated every 30 mins